createdAt,value
2018-03-24T00:00:35.840Z,8.35
2018-03-24T00:01:24.980Z,8.60
2018-03-24T00:02:14.019Z,7.25
2018-03-24T00:03:03.057Z,7.10
2018-03-24T00:03:52.100Z,7.20
2018-03-24T00:04:41.144Z,8.00
2018-03-24T00:05:30.192Z,8.90
2018-03-24T00:06:19.236Z,8.80
2018-03-24T00:07:08.390Z,6.85
2018-03-24T00:07:57.425Z,6.68
2018-03-24T00:08:46.491Z,7.28
2018-03-24T00:09:35.585Z,7.85
2018-03-24T00:10:24.640Z,8.45
2018-03-24T00:11:13.674Z,9.13
2018-03-24T00:12:02.712Z,8.20
2018-03-24T00:12:51.760Z,7.07
2018-03-24T00:13:40.809Z,8.85
2018-03-24T00:14:29.860Z,7.93
2018-03-24T00:15:18.950Z,7.03
2018-03-24T00:16:08.005Z,6.90
2018-03-24T00:16:57.055Z,6.05
2018-03-24T00:17:46.102Z,6.10
2018-03-24T00:18:35.143Z,6.00
2018-03-24T00:19:24.182Z,7.75
2018-03-24T00:20:13.225Z,6.45
2018-03-24T00:21:02.334Z,6.30
2018-03-24T00:21:51.370Z,6.45
2018-03-24T00:22:40.541Z,5.82
2018-03-24T00:23:29.581Z,5.85
2018-03-24T00:24:18.625Z,5.55
2018-03-24T00:25:07.669Z,5.93
2018-03-24T00:25:56.723Z,6.78
2018-03-24T00:26:45.770Z,5.53
2018-03-24T00:27:34.805Z,6.03
2018-03-24T00:28:24.151Z,5.45
2018-03-24T00:29:13.193Z,5.53
2018-03-24T00:30:02.233Z,6.28
2018-03-24T00:30:51.283Z,6.05
2018-03-24T00:31:40.324Z,6.45
2018-03-24T00:32:29.374Z,6.50
2018-03-24T00:33:18.421Z,6.80
2018-03-24T00:34:07.733Z,6.55
2018-03-24T00:34:56.784Z,6.15
2018-03-24T00:35:45.841Z,6.20
2018-03-24T00:36:34.891Z,7.37
2018-03-24T00:37:23.963Z,7.50
2018-03-24T00:38:13.004Z,5.68
2018-03-24T00:39:02.049Z,5.97
2018-03-24T00:39:51.180Z,5.97
2018-03-24T00:40:40.231Z,6.68
2018-03-24T00:41:29.277Z,7.05
2018-03-24T00:42:18.358Z,5.62
2018-03-24T00:43:07.394Z,7.53
2018-03-24T00:43:56.438Z,6.12
2018-03-24T00:44:45.484Z,7.50
2018-03-24T00:45:36.346Z,7.28
2018-03-24T00:46:25.388Z,6.18
2018-03-24T00:47:14.426Z,7.82
2018-03-24T00:48:03.474Z,9.27
2018-03-24T00:48:52.513Z,6.40
2018-03-24T00:49:41.557Z,7.18
2018-03-24T00:50:30.601Z,6.97
2018-03-24T00:51:19.744Z,6.90
2018-03-24T00:52:08.792Z,7.30
2018-03-24T00:52:57.835Z,6.93
2018-03-24T00:53:46.880Z,8.10
2018-03-24T00:54:35.929Z,8.40
2018-03-24T00:55:25.025Z,9.23
2018-03-24T00:56:14.070Z,7.03
2018-03-24T00:57:03.169Z,7.97
2018-03-24T00:57:52.205Z,7.82
2018-03-24T00:58:41.242Z,7.07
2018-03-24T00:59:30.291Z,7.87
2018-03-24T01:00:19.400Z,6.97
2018-03-24T01:01:08.569Z,7.72
2018-03-24T08:20:45.174Z,35.33
2018-03-24T08:21:34.576Z,44.88
2018-03-24T08:22:23.641Z,32.92
2018-03-24T08:23:12.698Z,32.30
2018-03-24T08:24:01.761Z,32.20
2018-03-24T08:24:50.825Z,35.92
2018-03-24T08:25:39.887Z,34.60
2018-03-24T08:26:29.072Z,39.17
2018-03-24T08:27:18.141Z,62.40
2018-03-24T08:28:07.211Z,54.20
2018-03-24T08:28:56.264Z,55.67
2018-03-24T08:29:45.357Z,47.60
2018-03-24T08:30:34.413Z,47.60
2018-03-24T08:31:23.501Z,155.32
2018-03-24T08:32:12.560Z,52.72
2018-03-24T08:33:01.620Z,59.88
2018-03-24T08:33:50.694Z,51.53
2018-03-24T08:34:39.752Z,67.15
2018-03-24T08:35:28.869Z,47.58
2018-03-24T08:36:17.934Z,39.72
2018-03-24T08:37:06.998Z,33.72
2018-03-24T08:37:56.070Z,36.10
2018-03-24T08:38:45.131Z,51.05
2018-03-24T08:39:34.205Z,42.25
2018-03-24T08:40:23.314Z,45.65
2018-03-24T08:41:12.369Z,33.30
2018-03-24T08:42:01.705Z,46.70
2018-03-24T08:42:51.154Z,109.72
2018-03-24T08:43:40.213Z,54.25
2018-03-24T08:44:29.399Z,37.28
2018-03-24T08:45:18.624Z,36.83
2018-03-24T08:46:07.805Z,68.25
2018-03-24T08:46:57.342Z,79.80
2018-03-24T08:47:46.411Z,78.75
2018-03-24T08:48:35.488Z,79.80
2018-03-24T08:49:24.726Z,92.68
2018-03-24T08:50:13.782Z,48.87
2018-03-24T08:51:02.938Z,67.60
2018-03-24T08:51:51.999Z,43.83
2018-03-24T08:52:41.077Z,32.75
2018-03-24T08:53:30.138Z,38.28
2018-03-24T08:54:19.204Z,30.25
2018-03-24T08:55:08.277Z,33.40
2018-03-24T08:55:57.337Z,35.03
2018-03-24T08:56:46.453Z,46.60
2018-03-24T08:57:35.509Z,40.72
2018-03-24T08:58:24.606Z,40.45
2018-03-24T08:59:13.678Z,21.27
2018-03-24T09:00:02.740Z,22.00
2018-03-24T09:00:51.822Z,20.75
2018-03-24T09:01:40.929Z,18.83
2018-03-24T09:02:29.994Z,34.15
2018-03-24T09:03:19.052Z,37.65
2018-03-24T09:04:08.138Z,28.12
2018-03-24T09:04:57.197Z,29.70
2018-03-24T09:05:46.258Z,39.17
2018-03-24T09:06:35.324Z,26.50
2018-03-24T09:07:24.513Z,23.42
2018-03-24T09:08:13.570Z,26.20
2018-03-24T09:09:02.660Z,29.15
2018-03-24T09:09:51.731Z,27.13
2018-03-24T09:10:40.792Z,27.77
2018-03-24T09:11:29.848Z,26.20
2018-03-24T09:12:18.910Z,31.12
2018-03-24T09:13:08.079Z,36.70
2018-03-24T09:13:57.140Z,26.42
2018-03-24T09:14:46.205Z,33.95
2018-03-24T09:15:35.256Z,22.17
2018-03-24T09:16:24.368Z,27.83
2018-03-24T09:17:13.449Z,64.50
2018-03-24T09:18:02.549Z,17.90
2018-03-24T09:18:51.588Z,35.35
2018-03-24T09:19:40.652Z,41.70
2018-03-24T09:20:29.703Z,172.65
2018-03-24T09:21:18.778Z,51.83
2018-03-24T09:22:07.904Z,53.08
2018-03-24T09:22:56.955Z,61.83
2018-03-24T09:23:46.005Z,82.85
2018-03-24T09:24:35.080Z,45.63
2018-03-24T09:25:24.191Z,33.78
2018-03-24T09:26:13.259Z,35.42
2018-03-24T09:27:02.414Z,36.00
2018-03-24T09:27:51.478Z,23.15
2018-03-24T09:28:40.532Z,51.40
2018-03-24T09:29:29.595Z,40.33
2018-03-24T09:30:18.653Z,60.72
2018-03-24T09:31:07.705Z,41.80
2018-03-24T09:31:56.767Z,19.52
2018-03-24T09:32:45.876Z,50.22
2018-03-24T09:33:34.940Z,39.58
2018-03-24T09:34:24.017Z,23.42
2018-03-24T09:35:13.082Z,24.27
2018-03-24T09:36:02.151Z,23.58
2018-03-24T09:36:51.269Z,27.73
2018-03-24T09:37:40.321Z,22.02
2018-03-24T09:38:29.482Z,19.23
2018-03-24T09:39:18.586Z,33.03
2018-03-24T09:40:07.720Z,12.40
2018-03-24T09:40:56.809Z,27.58
2018-03-24T09:41:45.945Z,26.25
2018-03-24T09:42:35.008Z,24.50
2018-03-24T09:43:24.066Z,22.60
2018-03-24T09:44:13.129Z,15.45
2018-03-24T09:45:02.184Z,14.20
2018-03-24T09:45:51.246Z,12.20
2018-03-24T09:46:40.295Z,14.38
2018-03-24T09:47:29.471Z,14.38
2018-03-24T09:48:18.556Z,33.38
2018-03-24T09:49:07.600Z,29.58
2018-03-24T09:49:56.677Z,20.42
2018-03-24T09:50:45.738Z,15.10
2018-03-24T09:51:34.785Z,20.40
2018-03-24T09:52:23.902Z,19.83
2018-03-24T09:53:12.963Z,16.33
2018-03-24T09:54:02.021Z,15.02
2018-03-24T09:54:51.094Z,13.13
2018-03-24T09:55:40.148Z,31.65
2018-03-24T09:56:29.288Z,10.43
2018-03-24T09:57:18.339Z,21.92
2018-03-24T09:58:07.397Z,10.48
2018-03-24T09:58:56.453Z,18.85
2018-03-24T09:59:45.531Z,14.38
2018-03-24T10:00:34.597Z,19.50
2018-03-24T10:01:23.661Z,25.17
2018-03-24T10:02:12.772Z,20.67
2018-03-24T10:03:01.846Z,44.67
2018-03-24T10:03:50.990Z,20.27
2018-03-24T10:04:40.146Z,25.73
2018-03-24T10:05:29.206Z,19.85
2018-03-24T10:06:18.335Z,68.72
2018-03-24T10:07:07.408Z,88.43
2018-03-24T10:07:56.483Z,18.90
2018-03-24T10:08:45.549Z,21.67
2018-03-24T10:09:34.616Z,25.73
2018-03-24T10:10:23.713Z,20.45
2018-03-24T10:11:12.768Z,27.37
2018-03-24T10:12:01.834Z,18.75
2018-03-24T10:12:50.940Z,12.20
2018-03-24T10:13:39.984Z,10.35
2018-03-24T10:14:29.046Z,23.75
2018-03-24T10:15:18.105Z,20.58
2018-03-24T10:16:07.265Z,33.65
2018-03-24T10:16:56.325Z,25.12
2018-03-24T10:17:46.211Z,10.75
2018-03-24T10:18:35.300Z,14.70
2018-03-24T10:19:24.428Z,13.65
2018-03-24T10:20:13.482Z,18.35
2018-03-24T10:22:44.312Z,10.60
2018-03-24T10:23:43.036Z,21.40
2018-03-24T10:24:32.254Z,8.75
2018-03-24T10:25:21.310Z,16.60
2018-03-24T10:26:10.366Z,50.08
2018-03-24T10:26:59.423Z,22.55
2018-03-24T10:27:48.475Z,36.40
2018-03-24T10:28:37.529Z,18.67
2018-03-24T10:29:26.585Z,36.72
2018-03-24T10:30:15.682Z,127.65
2018-03-24T10:31:05.549Z,56.67
2018-03-24T10:31:54.621Z,28.83
2018-03-24T10:32:43.666Z,17.95
2018-03-24T10:33:32.794Z,18.73
2018-03-24T10:34:21.842Z,15.00
2018-03-24T10:35:10.914Z,103.22
2018-03-24T10:36:00.097Z,37.58
2018-03-24T10:36:49.152Z,30.25
2018-03-24T10:37:43.775Z,17.27
2018-03-24T10:38:32.833Z,42.42
2018-03-24T10:39:21.926Z,31.08
2018-03-24T10:40:10.982Z,92.93
2018-03-24T10:41:05.814Z,43.13
2018-03-24T10:41:54.936Z,35.40
2018-03-24T10:42:49.454Z,114.37
2018-03-24T10:43:39.429Z,66.15
2018-03-24T10:44:28.494Z,47.97
2018-03-24T10:45:17.554Z,16.05
2018-03-24T10:46:06.619Z,32.00
2018-03-24T10:46:56.128Z,24.33
2018-03-24T10:47:45.189Z,47.53
2018-03-24T10:48:34.250Z,31.70
2018-03-24T10:49:23.305Z,34.65
2018-03-24T10:50:12.364Z,46.65
2018-03-24T10:51:01.438Z,20.05
2018-03-24T10:51:50.508Z,20.58
2018-03-24T10:52:39.681Z,21.17
2018-03-24T10:53:28.750Z,65.12
2018-03-24T10:54:17.814Z,21.73
2018-03-24T10:55:06.868Z,20.88
2018-03-24T10:55:55.935Z,17.15
2018-03-24T10:56:45.065Z,18.00
2018-03-24T10:57:34.132Z,24.58
2018-03-24T10:58:23.218Z,12.45
2018-03-24T10:59:12.271Z,13.68
2018-03-24T11:00:01.342Z,32.30
2018-03-24T11:00:55.887Z,22.13
2018-03-24T11:01:44.965Z,19.62
2018-03-24T11:02:35.557Z,19.92
2018-03-24T11:03:24.704Z,21.87
2018-03-24T11:04:13.900Z,18.37
2018-03-24T11:05:03.186Z,19.30
2018-03-24T11:05:52.268Z,12.37
2018-03-24T11:06:41.330Z,15.10
2018-03-24T11:07:30.390Z,23.75
2018-03-24T11:08:19.448Z,16.08
2018-03-24T11:09:08.516Z,18.77
2018-03-24T11:09:57.621Z,13.85
2018-03-24T11:10:46.718Z,12.60
2018-03-24T11:11:35.848Z,27.45
2018-03-24T11:12:24.941Z,15.73
2018-03-24T11:13:13.994Z,34.15
2018-03-24T11:14:03.063Z,18.90
2018-03-24T11:14:52.128Z,175.07
2018-03-24T11:15:41.262Z,136.35
2018-03-24T11:16:30.319Z,97.45
2018-03-24T11:17:19.376Z,64.53
2018-03-24T11:18:08.431Z,35.75
2018-03-24T11:18:57.503Z,24.52
2018-03-24T11:19:46.569Z,51.25
2018-03-24T11:20:35.641Z,15.88
2018-03-24T11:21:24.816Z,33.25
2018-03-24T11:22:13.873Z,17.42
2018-03-24T11:23:02.925Z,18.87
2018-03-24T11:23:51.984Z,24.77
2018-03-24T11:24:41.046Z,25.50
2018-03-24T11:25:30.116Z,27.00
2018-03-24T11:26:19.287Z,29.67
2018-03-24T11:27:08.343Z,29.02
2018-03-24T11:27:57.421Z,31.83
2018-03-24T11:28:46.502Z,29.83
2018-03-24T11:29:35.558Z,29.83
2018-03-24T11:30:24.624Z,34.70
2018-03-24T11:31:13.674Z,41.92
2018-03-24T11:32:02.795Z,36.83
2018-03-24T11:32:51.858Z,29.12
2018-03-24T11:33:40.926Z,37.95
2018-03-24T11:34:29.999Z,38.85
2018-03-24T11:35:19.080Z,26.23
2018-03-24T11:36:08.137Z,30.23
2018-03-24T11:36:57.204Z,39.78
2018-03-24T11:37:46.364Z,46.75
2018-03-24T11:38:35.422Z,30.10
2018-03-24T11:39:24.502Z,24.25
2018-03-24T11:40:13.561Z,22.80
2018-03-24T11:41:02.613Z,27.35
2018-03-24T11:41:52.482Z,29.25
2018-03-24T11:42:41.549Z,61.55
2018-03-24T11:43:30.722Z,61.95
2018-03-24T11:44:19.779Z,84.25
2018-03-24T11:45:08.853Z,85.93
2018-03-24T11:45:57.957Z,129.15
2018-03-24T11:46:47.010Z,100.00
2018-03-24T11:47:36.088Z,70.00
2018-03-24T11:48:25.158Z,43.28
2018-03-24T11:49:14.270Z,47.75
2018-03-24T11:50:03.331Z,34.15
2018-03-24T11:50:52.380Z,30.37
2018-03-24T11:51:41.435Z,35.55
2018-03-24T11:52:30.496Z,22.02
2018-03-24T11:53:19.733Z,23.35
2018-03-24T11:54:08.794Z,88.45
2018-03-24T11:54:57.892Z,59.75
2018-03-24T11:55:46.952Z,45.40
2018-03-24T11:56:36.008Z,54.10
2018-03-24T11:57:25.075Z,83.93
2018-03-24T11:58:14.143Z,66.25
2018-03-24T11:59:03.317Z,51.42
2018-03-24T11:59:52.375Z,93.78
2018-03-24T12:00:41.444Z,102.85
2018-03-24T12:01:30.513Z,123.15
2018-03-24T12:02:19.578Z,55.42
2018-03-24T12:03:08.644Z,55.85
2018-03-24T12:03:57.838Z,52.42
2018-03-24T12:04:46.903Z,39.90
2018-03-24T12:05:35.964Z,44.95
2018-03-24T12:06:25.010Z,40.00
2018-03-24T12:07:14.086Z,64.87
2018-03-24T12:08:03.138Z,43.22
2018-03-24T12:08:52.203Z,24.70
2018-03-24T12:09:41.295Z,32.20
2018-03-24T12:10:30.355Z,26.23
2018-03-24T12:11:19.422Z,23.52
2018-03-24T12:12:08.483Z,26.48
2018-03-24T12:12:57.542Z,30.67
2018-03-24T12:13:46.595Z,23.87
2018-03-24T12:14:35.666Z,24.17
2018-03-24T12:15:24.760Z,27.25
2018-03-24T12:16:13.818Z,27.67
2018-03-24T12:17:02.875Z,43.58
2018-03-24T12:17:51.937Z,35.63
2018-03-24T12:18:41.016Z,36.15
2018-03-24T12:19:30.077Z,36.78
2018-03-24T12:20:19.160Z,28.70
2018-03-24T12:21:08.340Z,25.62
2018-03-24T12:21:57.386Z,33.97
2018-03-24T12:22:46.442Z,29.63
2018-03-24T12:23:35.496Z,30.70
2018-03-24T12:24:24.546Z,23.90
2018-03-24T12:25:13.600Z,28.50
2018-03-24T12:26:02.655Z,22.92
2018-03-24T12:26:51.829Z,27.37
2018-03-24T12:27:40.922Z,21.33
2018-03-24T12:28:29.989Z,22.65
2018-03-24T12:29:19.049Z,42.65
2018-03-24T12:30:08.180Z,34.08
2018-03-24T12:30:57.258Z,31.05
2018-03-24T12:31:46.345Z,160.02
2018-03-24T12:32:35.449Z,40.88
2018-03-24T12:33:24.503Z,54.60
2018-03-24T12:34:13.563Z,61.72
2018-03-24T12:35:02.622Z,163.45
2018-03-24T12:35:51.757Z,109.35
2018-03-24T12:36:40.817Z,23.48
2018-03-24T12:37:29.884Z,36.80
2018-03-24T12:38:18.977Z,47.83
2018-03-24T12:39:08.031Z,52.13
2018-03-24T12:39:57.103Z,39.17
2018-03-24T12:40:46.173Z,46.67
2018-03-24T12:41:35.241Z,52.60
2018-03-24T12:42:24.292Z,27.92
2018-03-24T12:43:13.350Z,51.13
2018-03-24T12:44:02.518Z,107.20
2018-03-24T12:44:52.014Z,84.72
2018-03-24T12:45:41.075Z,79.45
2018-03-24T12:46:30.177Z,47.53
2018-03-24T12:47:19.544Z,82.82
2018-03-24T12:48:08.614Z,76.10
2018-03-24T12:48:57.728Z,90.75
2018-03-24T12:49:46.943Z,165.05
2018-03-24T12:50:36.002Z,109.90
2018-03-24T12:51:25.185Z,92.62
2018-03-24T12:52:14.240Z,78.40
2018-03-24T12:53:03.313Z,39.38
2018-03-24T12:53:52.363Z,51.78
2018-03-24T12:54:41.414Z,53.70
2018-03-24T12:55:30.470Z,52.75
2018-03-24T12:56:19.537Z,68.15
2018-03-24T12:57:08.638Z,91.12
2018-03-24T12:57:57.707Z,61.67
2018-03-24T12:58:46.757Z,52.95
2018-03-24T12:59:35.817Z,67.00
2018-03-24T13:00:24.931Z,46.45
2018-03-24T13:01:14.204Z,83.85
2018-03-24T13:02:03.297Z,62.40
2018-03-24T13:02:52.461Z,49.88
2018-03-24T13:03:41.517Z,49.08
2018-03-24T13:04:30.572Z,46.60
2018-03-24T13:05:19.633Z,51.35
2018-03-24T13:06:08.689Z,38.85
2018-03-24T13:06:57.760Z,53.53
2018-03-24T13:07:46.893Z,69.45
2018-03-24T13:08:35.960Z,40.72
2018-03-24T13:09:25.024Z,44.08
2018-03-24T13:10:14.093Z,33.67
2018-03-24T13:11:03.152Z,39.53
2018-03-24T13:11:52.235Z,36.30
2018-03-24T13:12:41.410Z,30.02
2018-03-24T13:13:30.480Z,22.87
2018-03-24T13:14:19.532Z,16.80
2018-03-24T13:15:08.588Z,31.10
2018-03-24T13:15:57.643Z,76.45
2018-03-24T13:16:46.695Z,58.53
2018-03-24T13:17:35.760Z,39.20
2018-03-24T13:18:24.865Z,40.88
2018-03-24T13:19:13.926Z,33.28
2018-03-24T13:20:03.012Z,34.95
2018-03-24T13:20:52.087Z,35.08
2018-03-24T13:21:41.161Z,23.27
2018-03-24T13:22:30.229Z,28.50
2018-03-24T13:23:19.279Z,36.05
2018-03-24T13:24:08.622Z,35.75
2018-03-24T13:24:57.684Z,29.90
2018-03-24T13:25:46.739Z,30.30
2018-03-24T13:26:35.810Z,26.42
2018-03-24T13:27:24.860Z,22.50
2018-03-24T13:28:13.923Z,17.30
2018-03-24T13:29:03.050Z,22.35
2018-03-24T13:29:52.564Z,24.83
2018-03-24T13:30:41.626Z,28.20
2018-03-24T13:31:30.725Z,32.95
2018-03-24T13:32:19.838Z,38.95
2018-03-24T13:33:08.898Z,24.08
2018-03-24T13:33:58.045Z,22.62
2018-03-24T13:34:47.107Z,40.08
2018-03-24T13:35:36.213Z,20.25
2018-03-24T13:36:25.277Z,21.67
2018-03-24T13:37:14.349Z,49.10
2018-03-24T13:38:03.489Z,34.50
2018-03-24T13:38:52.548Z,72.82
2018-03-24T13:39:41.633Z,39.05
2018-03-24T13:40:30.712Z,83.87
2018-03-24T13:41:19.809Z,48.70
2018-03-24T13:42:08.876Z,38.30
2018-03-24T13:42:57.952Z,42.38
2018-03-24T13:43:47.041Z,53.90
2018-03-24T13:44:36.127Z,41.30
2018-03-24T13:45:25.247Z,37.45
2018-03-24T13:46:14.301Z,38.78
2018-03-24T13:47:03.499Z,30.75
2018-03-24T13:47:52.851Z,46.75
2018-03-24T13:48:41.928Z,54.53
2018-03-24T13:49:31.050Z,34.22
2018-03-24T13:50:20.107Z,27.00
2018-03-24T13:51:09.172Z,28.55
2018-03-24T13:51:58.221Z,26.85
2018-03-24T13:52:47.276Z,30.42
2018-03-24T13:53:36.334Z,30.20
2018-03-24T13:54:25.384Z,28.55
2018-03-24T13:55:14.569Z,34.83
2018-03-24T13:56:03.639Z,51.25
2018-03-24T13:56:52.706Z,50.33
2018-03-24T13:57:41.771Z,49.00
2018-03-24T13:58:30.841Z,52.08
2018-03-24T13:59:19.896Z,51.53
2018-03-24T14:00:08.970Z,66.47
2018-03-24T14:00:58.093Z,110.40
2018-03-24T14:01:47.233Z,88.32
2018-03-24T14:02:36.297Z,82.85
2018-03-24T14:03:25.348Z,83.28
2018-03-24T14:04:14.418Z,94.15
2018-03-24T14:05:03.532Z,174.48
2018-03-24T14:05:52.892Z,194.82
2018-03-24T14:06:42.063Z,61.65
2018-03-24T14:07:31.135Z,39.83
2018-03-24T14:08:20.188Z,42.97
2018-03-24T14:09:09.248Z,54.28
2018-03-24T14:09:58.335Z,48.30
2018-03-24T14:10:47.480Z,72.20
2018-03-24T14:11:36.555Z,102.43
2018-03-24T14:12:25.641Z,52.88
2018-03-24T14:13:14.714Z,63.10
2018-03-24T14:14:03.828Z,27.23
2018-03-24T14:14:52.964Z,52.10
2018-03-24T14:15:42.120Z,29.50
2018-03-24T14:16:31.191Z,41.33
2018-03-24T14:17:20.285Z,51.88
2018-03-24T14:18:09.344Z,155.52
2018-03-24T14:18:58.401Z,48.92
2018-03-24T14:19:47.465Z,60.90
2018-03-24T14:20:36.539Z,49.58
2018-03-24T14:21:25.638Z,50.70
2018-03-24T14:22:14.726Z,51.95
2018-03-24T14:23:03.806Z,29.67
2018-03-24T14:23:52.902Z,38.42
2018-03-24T14:24:41.965Z,51.25
2018-03-24T14:25:31.079Z,29.17
2018-03-24T14:26:20.148Z,98.85
2018-03-24T14:27:09.272Z,58.22
2018-03-24T14:27:58.355Z,63.78
2018-03-24T14:28:47.406Z,50.53
2018-03-24T14:29:36.470Z,64.45
2018-03-24T14:30:25.531Z,69.20
2018-03-24T14:31:14.590Z,176.20
2018-03-24T14:32:03.751Z,101.68
2018-03-24T14:32:52.801Z,40.40
2018-03-24T14:33:41.869Z,38.78
2018-03-24T14:34:31.733Z,28.60
2018-03-24T14:35:20.817Z,39.55
2018-03-24T14:36:09.892Z,236.60
2018-03-24T14:36:59.049Z,31.50
2018-03-24T14:37:48.232Z,73.15
2018-03-24T14:38:37.284Z,35.80
2018-03-24T14:39:26.436Z,30.10
2018-03-24T14:40:15.515Z,32.85
2018-03-24T14:41:04.605Z,25.00
2018-03-24T14:41:53.666Z,31.95
2018-03-24T14:42:42.748Z,31.83
2018-03-24T14:43:31.923Z,26.17
2018-03-24T14:44:21.072Z,31.30
2018-03-24T14:45:10.151Z,39.17
2018-03-24T14:45:59.384Z,23.60
2018-03-24T14:46:48.448Z,28.33
2018-03-24T14:47:37.570Z,24.25
2018-03-24T14:48:26.632Z,44.55
2018-03-24T14:49:15.845Z,30.55
2018-03-24T14:50:05.075Z,22.52
2018-03-24T14:50:54.142Z,22.80
2018-03-24T14:51:43.206Z,24.67
2018-03-24T14:52:32.371Z,20.73
2018-03-24T14:53:21.501Z,27.35
2018-03-24T14:54:10.567Z,28.23
2018-03-24T14:54:59.858Z,30.58
2018-03-24T14:55:48.910Z,32.25
2018-03-24T14:56:38.133Z,47.45
2018-03-24T14:57:27.208Z,43.08
2018-03-24T14:58:16.320Z,37.53
2018-03-24T14:59:05.395Z,43.65
2018-03-24T14:59:54.514Z,48.40
2018-03-24T15:00:43.577Z,33.55
2018-03-24T15:01:32.662Z,49.00
2018-03-24T15:02:21.718Z,36.95
2018-03-24T15:03:10.786Z,36.05
2018-03-24T15:03:59.908Z,42.17
2018-03-24T15:04:49.048Z,47.47
2018-03-24T15:05:38.151Z,47.70
2018-03-24T15:06:27.248Z,47.25
2018-03-24T15:07:16.288Z,52.75
2018-03-24T15:08:05.402Z,52.97
2018-03-24T15:08:54.571Z,45.85
2018-03-24T15:09:43.641Z,55.28
2018-03-24T15:10:32.723Z,98.12
2018-03-24T15:11:21.790Z,96.72
2018-03-24T15:12:10.849Z,150.25
2018-03-24T15:12:59.931Z,118.95
2018-03-24T15:13:49.011Z,106.68
2018-03-24T15:14:38.125Z,84.28
2018-03-24T15:15:27.184Z,106.37
2018-03-24T15:16:16.237Z,64.70
2018-03-24T15:17:05.320Z,72.60
2018-03-24T15:17:54.444Z,48.40
2018-03-24T15:18:43.512Z,43.53
2018-03-24T15:19:32.612Z,44.67
2018-03-24T15:20:21.751Z,33.42
2018-03-24T15:21:10.869Z,36.50
2018-03-24T15:21:59.930Z,37.47
2018-03-24T15:22:48.992Z,33.70
2018-03-24T15:23:38.050Z,30.98
2018-03-24T15:24:27.172Z,32.63
2018-03-24T15:25:16.245Z,39.33
2018-03-24T18:04:52.069Z,112.75
2018-03-24T18:05:41.198Z,120.20
2018-03-24T18:06:31.101Z,112.93
2018-03-24T18:07:20.181Z,373.52
2018-03-24T18:08:09.277Z,230.43
2018-03-24T18:08:58.467Z,165.98
2018-03-24T18:09:47.540Z,173.13
2018-03-24T18:10:36.663Z,190.88
2018-03-24T18:11:25.766Z,134.85
2018-03-24T18:12:16.366Z,140.57
2018-03-24T18:13:05.461Z,140.65
2018-03-24T18:13:54.641Z,137.98
2018-03-24T18:14:43.711Z,142.57
2018-03-24T18:15:33.844Z,124.15
2018-03-24T18:16:23.001Z,175.15
2018-03-24T18:17:12.094Z,141.68
2018-03-24T18:18:01.182Z,139.02
2018-03-24T18:18:50.309Z,136.82
2018-03-24T18:19:40.218Z,134.07
2018-03-24T18:20:30.737Z,138.32
2018-03-24T18:21:20.692Z,129.00
2018-03-24T18:22:09.926Z,119.57
2018-03-24T18:22:59.006Z,115.05
2018-03-24T18:23:48.092Z,118.40
2018-03-24T18:24:37.183Z,113.75
2018-03-24T18:25:26.270Z,111.37
2018-03-24T18:26:15.386Z,115.45
2018-03-24T18:27:04.564Z,138.43
2018-03-24T18:27:53.651Z,128.95
2018-03-24T18:28:42.718Z,140.00
2018-03-24T18:29:31.790Z,142.30
2018-03-24T18:30:20.864Z,153.85
2018-03-24T18:31:09.932Z,166.80
2018-03-24T18:31:59.533Z,275.05
2018-03-24T18:32:48.606Z,460.10
2018-03-24T18:33:37.680Z,404.75
2018-03-24T18:34:26.750Z,301.23
2018-03-24T18:35:15.820Z,198.38
2018-03-24T18:36:04.910Z,142.62
2018-03-24T18:36:53.979Z,140.75
2018-03-24T18:37:43.145Z,143.05
2018-03-24T18:38:32.205Z,142.87
2018-03-24T18:39:21.271Z,124.45
2018-03-24T18:40:10.338Z,121.78
2018-03-24T18:40:59.412Z,116.53
2018-03-24T18:41:48.528Z,117.50
2018-03-24T18:42:37.639Z,113.53
2018-03-24T18:43:26.703Z,109.45
2018-03-24T18:44:15.833Z,106.53
2018-03-24T18:45:04.942Z,118.35
2018-03-24T18:45:54.044Z,110.90
2018-03-24T18:46:43.170Z,127.45
2018-03-24T18:47:32.243Z,127.30
2018-03-24T18:48:21.329Z,124.43
2018-03-24T18:49:10.496Z,124.25
2018-03-24T18:49:59.597Z,122.05
2018-03-24T18:50:49.310Z,107.78
2018-03-24T18:51:38.378Z,87.57
2018-03-24T18:52:27.444Z,100.93
2018-03-24T18:53:16.510Z,150.48
2018-03-24T18:54:05.591Z,224.30
2018-03-24T18:54:54.788Z,236.48
2018-03-24T18:55:43.858Z,130.30
2018-03-24T18:56:32.959Z,146.13
2018-03-24T18:57:22.080Z,127.00
2018-03-24T18:58:11.164Z,125.68
2018-03-24T18:59:00.280Z,131.10
2018-03-24T18:59:49.358Z,129.80
2018-03-24T19:00:38.503Z,166.62
2018-03-24T19:01:27.577Z,142.57
2018-03-24T19:02:16.764Z,135.70
2018-03-24T19:03:05.859Z,130.80
2018-03-24T19:03:54.950Z,123.75
2018-03-24T19:04:44.028Z,128.38
2018-03-24T19:05:33.117Z,106.87
2018-03-24T19:06:22.249Z,106.00
2018-03-24T19:07:11.326Z,108.85
2018-03-24T19:08:00.386Z,107.85
2018-03-24T19:08:49.542Z,102.93
2018-03-24T19:09:38.624Z,104.50
2018-03-24T19:10:27.688Z,99.75
2018-03-24T19:11:16.822Z,112.53
2018-03-24T19:12:05.909Z,112.45
2018-03-24T19:12:54.984Z,111.22
2018-03-24T19:13:44.264Z,125.15
2018-03-24T19:14:33.373Z,119.60
2018-03-24T19:15:22.441Z,152.27
2018-03-24T19:16:11.544Z,157.05
2018-03-24T19:17:00.623Z,126.53
2018-03-24T19:17:49.701Z,132.50
2018-03-24T19:18:38.763Z,118.20
2018-03-24T19:19:27.868Z,107.55
2018-03-24T19:20:16.999Z,101.32
2018-03-24T19:21:06.094Z,105.87
2018-03-24T19:21:55.155Z,96.47
2018-03-24T19:22:44.228Z,100.90
2018-03-24T19:23:33.314Z,104.00
2018-03-24T19:24:22.381Z,181.95
2018-03-24T19:25:11.519Z,263.92
2018-03-24T19:26:00.674Z,109.03
2018-03-24T19:26:49.758Z,86.15
2018-03-24T19:27:38.837Z,166.68
2018-03-24T19:28:27.932Z,102.85
2018-03-24T19:29:17.014Z,90.78
2018-03-24T19:30:06.089Z,110.10
2018-03-24T19:30:55.170Z,92.30
2018-03-24T19:31:44.267Z,98.90
2018-03-24T19:32:35.987Z,109.93
2018-03-24T19:33:25.411Z,107.75
2018-03-24T19:34:14.488Z,110.45
2018-03-24T19:36:26.594Z,95.40
2018-03-24T19:37:15.776Z,102.12
2018-03-24T19:38:04.885Z,86.43
2018-03-24T19:38:53.951Z,93.35
2018-03-24T19:39:43.068Z,105.37
2018-03-24T19:40:32.154Z,125.82
2018-03-24T19:41:21.297Z,109.28
2018-03-24T19:42:10.473Z,106.00
2018-03-24T19:42:59.582Z,103.38
2018-03-24T19:43:48.806Z,98.07
2018-03-24T19:44:37.886Z,104.50
2018-03-24T19:45:26.960Z,108.43
2018-03-24T19:46:16.039Z,108.43
2018-03-24T19:47:05.160Z,112.03
2018-03-24T19:47:54.223Z,114.78
2018-03-24T19:48:43.283Z,108.63
2018-03-24T19:49:32.347Z,115.00
2018-03-24T19:50:21.421Z,115.43
2018-03-24T19:51:10.853Z,135.65
2018-03-24T19:51:59.960Z,133.70
2018-03-24T19:52:49.146Z,143.02
2018-03-24T19:53:38.497Z,150.73
2018-03-24T19:54:27.622Z,154.93
2018-03-24T19:55:16.690Z,149.60
2018-03-24T19:56:05.840Z,166.62
2018-03-24T19:56:55.220Z,165.85
2018-03-24T19:57:44.296Z,130.55
2018-03-24T19:58:33.367Z,142.55
2018-03-24T19:59:22.434Z,121.65
2018-03-24T20:00:11.499Z,124.75
2018-03-24T20:01:00.601Z,112.70
2018-03-24T20:01:49.665Z,115.88
2018-03-24T20:02:38.840Z,168.85
2018-03-24T20:03:27.919Z,254.38
2018-03-24T20:04:16.988Z,226.93
2018-03-24T20:05:06.143Z,199.00
2018-03-24T20:05:55.221Z,191.05
2018-03-24T20:06:44.383Z,183.10
2018-03-24T20:07:33.456Z,150.55
2018-03-24T20:08:22.663Z,155.95
2018-03-24T20:09:11.733Z,129.00
2018-03-24T20:10:00.944Z,134.60
2018-03-24T20:10:50.017Z,142.87
2018-03-24T20:11:39.093Z,192.55
2018-03-24T20:12:28.167Z,191.57
2018-03-24T20:13:17.767Z,208.43
2018-03-24T20:14:06.874Z,184.90
2018-03-24T20:14:55.960Z,191.23
2018-03-24T20:15:45.219Z,191.50
2018-03-24T20:16:34.452Z,188.62
2018-03-24T20:17:23.438Z,191.65
2018-03-24T20:18:12.522Z,174.18
2018-03-24T20:19:01.583Z,156.73
2018-03-24T20:19:50.698Z,164.68
2018-03-24T20:20:39.770Z,170.12
2018-03-24T20:21:28.862Z,170.82
2018-03-24T20:22:17.998Z,149.98
2018-03-24T20:23:07.060Z,140.30
2018-03-24T20:23:56.149Z,142.98
2018-03-24T20:24:45.321Z,149.98
2018-03-24T20:25:34.410Z,157.93
2018-03-24T20:26:23.467Z,161.20
2018-03-24T20:27:12.581Z,176.85
2018-03-24T20:28:01.673Z,171.30
2018-03-24T20:28:50.750Z,157.88
2018-03-24T20:29:39.816Z,143.07
